Terminal Aerodrome Forecast
Issued by NWS

Home | Current Version | Previous Version | Graphics & Text | Print | Product List | Glossary On
Versions: 1 2 3 4 5 6 7 8 9 10 11 12 13 14 15 16 17 18 19 20 21 22 23 24 25
732
FTUS43 KTOP 160932 AAA
TAFFOE
TAF AMD
KFOE 160932Z 1610/1706 17006KT P6SM VCTS BKN090CB
      TEMPO 1611/1615 4SM TSRA OVC022CB
     FM161500 17008KT P6SM -SHRA VCTS OVC020CB
     FM161700 19010KT P6SM SCT030
     FM162100 22010KT P6SM TSRA BKN040CB
     FM170300 28007KT P6SM BKN110=

USA.gov is the U.S. government's official web portal to all federal, state and local government web resources and services.